sensor_id;sensor_type;location;lat;lon;timestamp;P1;durP1;ratioP1;P2;durP2;ratioP2
19927;SDS011;10126;50.876;4.470;2023-02-15T00:00:15;0.50;;;0.50;;
19927;SDS011;10126;50.876;4.470;2023-02-15T00:02:16;0.50;;;0.50;;
19927;SDS011;10126;50.876;4.470;2023-02-15T00:04:18;0.47;;;0.47;;
19927;SDS011;10126;50.876;4.470;2023-02-15T00:06:19;0.50;;;0.50;;
19927;SDS011;10126;50.876;4.470;2023-02-15T00:08:20;0.40;;;0.40;;
19927;SDS011;10126;50.876;4.470;2023-02-15T00:10:21;0.40;;;0.40;;
19927;SDS011;10126;50.876;4.470;2023-02-15T00:12:23;0.50;;;0.50;;
19927;SDS011;10126;50.876;4.470;2023-02-15T00:14:24;0.40;;;0.40;;
19927;SDS011;10126;50.876;4.470;2023-02-15T00:16:24;0.40;;;0.40;;
19927;SDS011;10126;50.876;4.470;2023-02-15T00:18:25;0.40;;;0.40;;
19927;SDS011;10126;50.876;4.470;2023-02-15T00:20:25;0.50;;;0.50;;
19927;SDS011;10126;50.876;4.470;2023-02-15T00:22:26;0.50;;;0.50;;
19927;SDS011;10126;50.876;4.470;2023-02-15T00:24:27;0.50;;;0.50;;
19927;SDS011;10126;50.876;4.470;2023-02-15T00:26:28;0.40;;;0.40;;
19927;SDS011;10126;50.876;4.470;2023-02-15T00:28:29;0.40;;;0.40;;
19927;SDS011;10126;50.876;4.470;2023-02-15T00:30:30;0.40;;;0.40;;
19927;SDS011;10126;50.876;4.470;2023-02-15T00:32:31;0.50;;;0.50;;
19927;SDS011;10126;50.876;4.470;2023-02-15T00:34:32;0.43;;;0.43;;
19927;SDS011;10126;50.876;4.470;2023-02-15T00:36:32;0.50;;;0.50;;
19927;SDS011;10126;50.876;4.470;2023-02-15T00:38:34;0.40;;;0.40;;
19927;SDS011;10126;50.876;4.470;2023-02-15T00:40:34;0.50;;;0.50;;
19927;SDS011;10126;50.876;4.470;2023-02-15T00:42:35;0.53;;;0.53;;
19927;SDS011;10126;50.876;4.470;2023-02-15T00:44:36;0.43;;;0.43;;
19927;SDS011;10126;50.876;4.470;2023-02-15T00:46:36;0.50;;;0.50;;
19927;SDS011;10126;50.876;4.470;2023-02-15T00:48:37;0.50;;;0.50;;
19927;SDS011;10126;50.876;4.470;2023-02-15T00:50:38;0.37;;;0.37;;
19927;SDS011;10126;50.876;4.470;2023-02-15T00:52:39;0.50;;;0.50;;
19927;SDS011;10126;50.876;4.470;2023-02-15T00:54:39;0.40;;;0.40;;
19927;SDS011;10126;50.876;4.470;2023-02-15T00:56:40;0.43;;;0.43;;
19927;SDS011;10126;50.876;4.470;2023-02-15T00:58:41;0.50;;;0.50;;
19927;SDS011;10126;50.876;4.470;2023-02-15T01:00:43;0.53;;;0.53;;
19927;SDS011;10126;50.876;4.470;2023-02-15T01:02:45;0.40;;;0.40;;
19927;SDS011;10126;50.876;4.470;2023-02-15T01:04:46;0.50;;;0.50;;
19927;SDS011;10126;50.876;4.470;2023-02-15T01:06:46;0.40;;;0.40;;
19927;SDS011;10126;50.876;4.470;2023-02-15T01:08:47;0.40;;;0.40;;
19927;SDS011;10126;50.876;4.470;2023-02-15T01:10:48;0.50;;;0.50;;
19927;SDS011;10126;50.876;4.470;2023-02-15T01:12:50;0.43;;;0.43;;
19927;SDS011;10126;50.876;4.470;2023-02-15T01:14:51;0.43;;;0.43;;
19927;SDS011;10126;50.876;4.470;2023-02-15T01:16:52;0.50;;;0.50;;
19927;SDS011;10126;50.876;4.470;2023-02-15T01:18:53;0.40;;;0.40;;
19927;SDS011;10126;50.876;4.470;2023-02-15T01:20:54;0.43;;;0.43;;
19927;SDS011;10126;50.876;4.470;2023-02-15T01:22:57;0.40;;;0.40;;
19927;SDS011;10126;50.876;4.470;2023-02-15T01:24:58;0.40;;;0.40;;
19927;SDS011;10126;50.876;4.470;2023-02-15T01:26:58;0.50;;;0.50;;
19927;SDS011;10126;50.876;4.470;2023-02-15T01:28:59;0.50;;;0.50;;
19927;SDS011;10126;50.876;4.470;2023-02-15T01:31:03;0.40;;;0.40;;
19927;SDS011;10126;50.876;4.470;2023-02-15T01:33:05;0.30;;;0.30;;
19927;SDS011;10126;50.876;4.470;2023-02-15T01:35:06;0.40;;;0.40;;
19927;SDS011;10126;50.876;4.470;2023-02-15T01:37:06;0.40;;;0.40;;
19927;SDS011;10126;50.876;4.470;2023-02-15T01:39:07;0.50;;;0.50;;
19927;SDS011;10126;50.876;4.470;2023-02-15T01:41:09;0.40;;;0.40;;
19927;SDS011;10126;50.876;4.470;2023-02-15T01:43:38;0.50;;;0.50;;
19927;SDS011;10126;50.876;4.470;2023-02-15T01:45:45;0.50;;;0.50;;
19927;SDS011;10126;50.876;4.470;2023-02-15T01:47:52;0.40;;;0.40;;
19927;SDS011;10126;50.876;4.470;2023-02-15T01:49:58;0.50;;;0.50;;
19927;SDS011;10126;50.876;4.470;2023-02-15T01:52:09;0.50;;;0.50;;
19927;SDS011;10126;50.876;4.470;2023-02-15T01:56:46;0.50;;;0.50;;
19927;SDS011;10126;50.876;4.470;2023-02-15T01:58:48;0.60;;;0.60;;
19927;SDS011;10126;50.876;4.470;2023-02-15T02:00:51;0.50;;;0.50;;
19927;SDS011;10126;50.876;4.470;2023-02-15T02:02:53;0.50;;;0.50;;
19927;SDS011;10126;50.876;4.470;2023-02-15T02:04:58;0.40;;;0.40;;
19927;SDS011;10126;50.876;4.470;2023-02-15T02:07:06;0.50;;;0.50;;
19927;SDS011;10126;50.876;4.470;2023-02-15T02:09:08;0.50;;;0.50;;
19927;SDS011;10126;50.876;4.470;2023-02-15T02:11:13;0.50;;;0.50;;
19927;SDS011;10126;50.876;4.470;2023-02-15T02:13:14;0.50;;;0.50;;
19927;SDS011;10126;50.876;4.470;2023-02-15T02:15:15;0.50;;;0.50;;
19927;SDS011;10126;50.876;4.470;2023-02-15T02:19:46;0.50;;;0.50;;
19927;SDS011;10126;50.876;4.470;2023-02-15T02:24:39;0.50;;;0.50;;
19927;SDS011;10126;50.876;4.470;2023-02-15T02:27:02;0.50;;;0.50;;
19927;SDS011;10126;50.876;4.470;2023-02-15T02:34:39;0.47;;;0.47;;
19927;SDS011;10126;50.876;4.470;2023-02-15T02:43:20;0.60;;;0.60;;
19927;SDS011;10126;50.876;4.470;2023-02-15T02:50:01;0.50;;;0.50;;
19927;SDS011;10126;50.876;4.470;2023-02-15T02:52:50;0.50;;;0.50;;
19927;SDS011;10126;50.876;4.470;2023-02-15T02:54:39;0.40;;;0.40;;
19927;SDS011;10126;50.876;4.470;2023-02-15T02:56:41;0.50;;;0.50;;
19927;SDS011;10126;50.876;4.470;2023-02-15T02:58:48;0.50;;;0.50;;
19927;SDS011;10126;50.876;4.470;2023-02-15T03:00:56;0.60;;;0.60;;
19927;SDS011;10126;50.876;4.470;2023-02-15T03:03:06;0.50;;;0.50;;
19927;SDS011;10126;50.876;4.470;2023-02-15T03:05:13;0.50;;;0.50;;
19927;SDS011;10126;50.876;4.470;2023-02-15T03:07:18;0.50;;;0.50;;
19927;SDS011;10126;50.876;4.470;2023-02-15T03:09:27;0.47;;;0.47;;
19927;SDS011;10126;50.876;4.470;2023-02-15T03:11:43;0.60;;;0.60;;
19927;SDS011;10126;50.876;4.470;2023-02-15T03:13:44;0.63;;;0.63;;
19927;SDS011;10126;50.876;4.470;2023-02-15T03:15:48;0.40;;;0.40;;
19927;SDS011;10126;50.876;4.470;2023-02-15T03:18:10;0.50;;;0.50;;
19927;SDS011;10126;50.876;4.470;2023-02-15T03:20:16;0.50;;;0.50;;
19927;SDS011;10126;50.876;4.470;2023-02-15T03:22:48;0.40;;;0.40;;
19927;SDS011;10126;50.876;4.470;2023-02-15T03:27:06;0.40;;;0.40;;
19927;SDS011;10126;50.876;4.470;2023-02-15T03:29:11;0.60;;;0.60;;
19927;SDS011;10126;50.876;4.470;2023-02-15T03:31:15;0.50;;;0.50;;
19927;SDS011;10126;50.876;4.470;2023-02-15T03:33:18;0.40;;;0.40;;
19927;SDS011;10126;50.876;4.470;2023-02-15T03:35:21;0.53;;;0.53;;
19927;SDS011;10126;50.876;4.470;2023-02-15T03:37:47;0.50;;;0.50;;
19927;SDS011;10126;50.876;4.470;2023-02-15T03:39:52;0.60;;;0.60;;
19927;SDS011;10126;50.876;4.470;2023-02-15T03:42:31;0.50;;;0.50;;
19927;SDS011;10126;50.876;4.470;2023-02-15T03:44:36;0.50;;;0.50;;
19927;SDS011;10126;50.876;4.470;2023-02-15T03:46:51;0.60;;;0.60;;
19927;SDS011;10126;50.876;4.470;2023-02-15T03:48:54;0.50;;;0.50;;
19927;SDS011;10126;50.876;4.470;2023-02-15T03:51:12;0.50;;;0.50;;
19927;SDS011;10126;50.876;4.470;2023-02-15T03:53:35;0.67;;;0.67;;
19927;SDS011;10126;50.876;4.470;2023-02-15T03:55:36;0.50;;;0.50;;
19927;SDS011;10126;50.876;4.470;2023-02-15T03:57:37;0.40;;;0.40;;
19927;SDS011;10126;50.876;4.470;2023-02-15T03:59:57;0.57;;;0.57;;
19927;SDS011;10126;50.876;4.470;2023-02-15T04:02:21;0.50;;;0.50;;
19927;SDS011;10126;50.876;4.470;2023-02-15T04:06:27;0.50;;;0.50;;
19927;SDS011;10126;50.876;4.470;2023-02-15T04:08:28;0.50;;;0.50;;
19927;SDS011;10126;50.876;4.470;2023-02-15T04:10:47;0.50;;;0.50;;
19927;SDS011;10126;50.876;4.470;2023-02-15T04:12:55;0.50;;;0.50;;
19927;SDS011;10126;50.876;4.470;2023-02-15T04:14:56;0.60;;;0.60;;
19927;SDS011;10126;50.876;4.470;2023-02-15T04:17:15;0.50;;;0.50;;
19927;SDS011;10126;50.876;4.470;2023-02-15T04:19:16;0.50;;;0.50;;
19927;SDS011;10126;50.876;4.470;2023-02-15T04:21:35;0.50;;;0.50;;
19927;SDS011;10126;50.876;4.470;2023-02-15T04:23:54;0.50;;;0.50;;
19927;SDS011;10126;50.876;4.470;2023-02-15T04:26:14;0.40;;;0.40;;
19927;SDS011;10126;50.876;4.470;2023-02-15T04:28:14;0.57;;;0.57;;
19927;SDS011;10126;50.876;4.470;2023-02-15T04:30:16;0.50;;;0.50;;
19927;SDS011;10126;50.876;4.470;2023-02-15T04:32:18;0.63;;;0.63;;
19927;SDS011;10126;50.876;4.470;2023-02-15T04:34:19;0.60;;;0.60;;
19927;SDS011;10126;50.876;4.470;2023-02-15T04:36:19;0.50;;;0.50;;
19927;SDS011;10126;50.876;4.470;2023-02-15T04:38:21;0.50;;;0.50;;
19927;SDS011;10126;50.876;4.470;2023-02-15T04:40:22;0.50;;;0.50;;
19927;SDS011;10126;50.876;4.470;2023-02-15T04:42:23;0.40;;;0.40;;
19927;SDS011;10126;50.876;4.470;2023-02-15T04:44:23;0.40;;;0.40;;
19927;SDS011;10126;50.876;4.470;2023-02-15T04:46:24;0.50;;;0.50;;
19927;SDS011;10126;50.876;4.470;2023-02-15T04:48:25;0.50;;;0.50;;
19927;SDS011;10126;50.876;4.470;2023-02-15T04:50:25;0.50;;;0.50;;
19927;SDS011;10126;50.876;4.470;2023-02-15T04:52:26;0.50;;;0.50;;
19927;SDS011;10126;50.876;4.470;2023-02-15T04:54:27;0.40;;;0.40;;
19927;SDS011;10126;50.876;4.470;2023-02-15T04:56:27;0.40;;;0.40;;
19927;SDS011;10126;50.876;4.470;2023-02-15T04:58:29;0.50;;;0.50;;
19927;SDS011;10126;50.876;4.470;2023-02-15T05:00:30;0.50;;;0.50;;
19927;SDS011;10126;50.876;4.470;2023-02-15T05:02:31;0.60;;;0.60;;
19927;SDS011;10126;50.876;4.470;2023-02-15T05:04:31;0.50;;;0.50;;
19927;SDS011;10126;50.876;4.470;2023-02-15T05:06:32;0.60;;;0.60;;
19927;SDS011;10126;50.876;4.470;2023-02-15T05:08:33;0.57;;;0.57;;
19927;SDS011;10126;50.876;4.470;2023-02-15T05:10:33;0.50;;;0.50;;
19927;SDS011;10126;50.876;4.470;2023-02-15T05:12:34;0.60;;;0.60;;
19927;SDS011;10126;50.876;4.470;2023-02-15T05:14:34;0.40;;;0.40;;
19927;SDS011;10126;50.876;4.470;2023-02-15T05:16:35;0.50;;;0.50;;
19927;SDS011;10126;50.876;4.470;2023-02-15T05:18:36;0.43;;;0.43;;
19927;SDS011;10126;50.876;4.470;2023-02-15T05:20:36;0.40;;;0.40;;
19927;SDS011;10126;50.876;4.470;2023-02-15T05:22:37;0.50;;;0.50;;
19927;SDS011;10126;50.876;4.470;2023-02-15T05:24:38;0.60;;;0.60;;
19927;SDS011;10126;50.876;4.470;2023-02-15T05:26:57;0.63;;;0.63;;
19927;SDS011;10126;50.876;4.470;2023-02-15T05:29:16;0.57;;;0.57;;
19927;SDS011;10126;50.876;4.470;2023-02-15T05:31:17;0.50;;;0.50;;
19927;SDS011;10126;50.876;4.470;2023-02-15T05:33:19;0.47;;;0.47;;
19927;SDS011;10126;50.876;4.470;2023-02-15T05:35:20;0.50;;;0.50;;
19927;SDS011;10126;50.876;4.470;2023-02-15T05:37:20;0.50;;;0.43;;
19927;SDS011;10126;50.876;4.470;2023-02-15T05:39:22;0.50;;;0.50;;
19927;SDS011;10126;50.876;4.470;2023-02-15T05:41:22;0.50;;;0.50;;
19927;SDS011;10126;50.876;4.470;2023-02-15T05:43:24;0.50;;;0.50;;
19927;SDS011;10126;50.876;4.470;2023-02-15T05:45:25;0.70;;;0.70;;
19927;SDS011;10126;50.876;4.470;2023-02-15T05:47:26;0.50;;;0.50;;
19927;SDS011;10126;50.876;4.470;2023-02-15T05:49:26;0.60;;;0.60;;
19927;SDS011;10126;50.876;4.470;2023-02-15T05:51:27;0.60;;;0.60;;
19927;SDS011;10126;50.876;4.470;2023-02-15T05:53:28;0.47;;;0.47;;
19927;SDS011;10126;50.876;4.470;2023-02-15T05:55:30;0.50;;;0.50;;
19927;SDS011;10126;50.876;4.470;2023-02-15T05:57:30;0.60;;;0.60;;
19927;SDS011;10126;50.876;4.470;2023-02-15T05:59:31;0.50;;;0.50;;
19927;SDS011;10126;50.876;4.470;2023-02-15T06:01:32;0.50;;;0.50;;
19927;SDS011;10126;50.876;4.470;2023-02-15T06:03:33;0.60;;;0.60;;
19927;SDS011;10126;50.876;4.470;2023-02-15T06:05:33;0.90;;;0.50;;
19927;SDS011;10126;50.876;4.470;2023-02-15T06:07:34;0.40;;;0.40;;
19927;SDS011;10126;50.876;4.470;2023-02-15T06:09:35;0.40;;;0.40;;
19927;SDS011;10126;50.876;4.470;2023-02-15T06:11:35;0.57;;;0.57;;
19927;SDS011;10126;50.876;4.470;2023-02-15T06:13:36;0.50;;;0.50;;
19927;SDS011;10126;50.876;4.470;2023-02-15T06:15:37;0.50;;;0.50;;
19927;SDS011;10126;50.876;4.470;2023-02-15T06:17:37;0.50;;;0.50;;
19927;SDS011;10126;50.876;4.470;2023-02-15T06:19:40;0.50;;;0.50;;
19927;SDS011;10126;50.876;4.470;2023-02-15T06:21:41;0.40;;;0.40;;
19927;SDS011;10126;50.876;4.470;2023-02-15T06:23:41;0.50;;;0.50;;
19927;SDS011;10126;50.876;4.470;2023-02-15T06:25:44;0.50;;;0.50;;
19927;SDS011;10126;50.876;4.470;2023-02-15T06:27:45;0.60;;;0.60;;
19927;SDS011;10126;50.876;4.470;2023-02-15T06:29:46;0.60;;;0.60;;
19927;SDS011;10126;50.876;4.470;2023-02-15T06:31:46;0.60;;;0.60;;
19927;SDS011;10126;50.876;4.470;2023-02-15T06:33:47;0.50;;;0.50;;
19927;SDS011;10126;50.876;4.470;2023-02-15T06:35:47;0.53;;;0.53;;
19927;SDS011;10126;50.876;4.470;2023-02-15T06:37:48;0.50;;;0.50;;
19927;SDS011;10126;50.876;4.470;2023-02-15T06:39:49;0.60;;;0.60;;
19927;SDS011;10126;50.876;4.470;2023-02-15T06:41:49;0.40;;;0.40;;
19927;SDS011;10126;50.876;4.470;2023-02-15T06:43:50;0.53;;;0.53;;
19927;SDS011;10126;50.876;4.470;2023-02-15T06:45:51;0.50;;;0.50;;
19927;SDS011;10126;50.876;4.470;2023-02-15T06:47:51;0.50;;;0.50;;
19927;SDS011;10126;50.876;4.470;2023-02-15T06:49:52;0.40;;;0.40;;
19927;SDS011;10126;50.876;4.470;2023-02-15T06:51:52;0.60;;;0.60;;
19927;SDS011;10126;50.876;4.470;2023-02-15T06:53:53;0.50;;;0.50;;
19927;SDS011;10126;50.876;4.470;2023-02-15T06:55:59;0.50;;;0.50;;
19927;SDS011;10126;50.876;4.470;2023-02-15T06:58:06;0.60;;;0.60;;
19927;SDS011;10126;50.876;4.470;2023-02-15T07:00:07;0.60;;;0.60;;
19927;SDS011;10126;50.876;4.470;2023-02-15T07:02:08;0.50;;;0.50;;
19927;SDS011;10126;50.876;4.470;2023-02-15T07:04:11;0.60;;;0.60;;
19927;SDS011;10126;50.876;4.470;2023-02-15T07:06:11;0.50;;;0.50;;
19927;SDS011;10126;50.876;4.470;2023-02-15T07:08:12;0.50;;;0.50;;
19927;SDS011;10126;50.876;4.470;2023-02-15T07:10:13;0.40;;;0.40;;
19927;SDS011;10126;50.876;4.470;2023-02-15T07:12:13;0.50;;;0.50;;
19927;SDS011;10126;50.876;4.470;2023-02-15T07:14:33;0.87;;;0.63;;
19927;SDS011;10126;50.876;4.470;2023-02-15T07:16:34;0.43;;;0.43;;
19927;SDS011;10126;50.876;4.470;2023-02-15T07:18:35;0.50;;;0.50;;
19927;SDS011;10126;50.876;4.470;2023-02-15T07:20:36;0.60;;;0.60;;
19927;SDS011;10126;50.876;4.470;2023-02-15T07:22:37;0.70;;;0.50;;
19927;SDS011;10126;50.876;4.470;2023-02-15T07:24:38;0.40;;;0.40;;
19927;SDS011;10126;50.876;4.470;2023-02-15T07:26:38;0.60;;;0.60;;
19927;SDS011;10126;50.876;4.470;2023-02-15T07:28:39;0.40;;;0.40;;
19927;SDS011;10126;50.876;4.470;2023-02-15T07:30:39;0.30;;;0.30;;
19927;SDS011;10126;50.876;4.470;2023-02-15T07:32:40;0.47;;;0.47;;
19927;SDS011;10126;50.876;4.470;2023-02-15T07:35:01;0.50;;;0.50;;
19927;SDS011;10126;50.876;4.470;2023-02-15T07:37:01;0.40;;;0.40;;
19927;SDS011;10126;50.876;4.470;2023-02-15T07:39:02;0.50;;;0.50;;
19927;SDS011;10126;50.876;4.470;2023-02-15T07:41:05;0.83;;;0.40;;
19927;SDS011;10126;50.876;4.470;2023-02-15T07:43:07;0.40;;;0.40;;
19927;SDS011;10126;50.876;4.470;2023-02-15T07:45:08;0.40;;;0.40;;
19927;SDS011;10126;50.876;4.470;2023-02-15T07:47:09;0.50;;;0.50;;
19927;SDS011;10126;50.876;4.470;2023-02-15T07:49:10;0.30;;;0.30;;
19927;SDS011;10126;50.876;4.470;2023-02-15T07:51:11;0.40;;;0.40;;
19927;SDS011;10126;50.876;4.470;2023-02-15T07:53:12;0.50;;;0.50;;
19927;SDS011;10126;50.876;4.470;2023-02-15T07:55:13;0.40;;;0.40;;
19927;SDS011;10126;50.876;4.470;2023-02-15T07:57:13;0.40;;;0.40;;
19927;SDS011;10126;50.876;4.470;2023-02-15T07:59:14;0.40;;;0.40;;
19927;SDS011;10126;50.876;4.470;2023-02-15T08:01:15;0.37;;;0.37;;
19927;SDS011;10126;50.876;4.470;2023-02-15T08:03:16;0.30;;;0.30;;
19927;SDS011;10126;50.876;4.470;2023-02-15T08:05:16;0.40;;;0.40;;
19927;SDS011;10126;50.876;4.470;2023-02-15T08:07:18;0.30;;;0.30;;
19927;SDS011;10126;50.876;4.470;2023-02-15T08:09:18;0.30;;;0.30;;
19927;SDS011;10126;50.876;4.470;2023-02-15T08:13:25;0.40;;;0.40;;
19927;SDS011;10126;50.876;4.470;2023-02-15T08:15:26;0.30;;;0.30;;
19927;SDS011;10126;50.876;4.470;2023-02-15T08:17:26;0.33;;;0.33;;
19927;SDS011;10126;50.876;4.470;2023-02-15T08:19:31;0.40;;;0.40;;
19927;SDS011;10126;50.876;4.470;2023-02-15T08:21:33;0.40;;;0.40;;
19927;SDS011;10126;50.876;4.470;2023-02-15T08:23:35;0.33;;;0.33;;
19927;SDS011;10126;50.876;4.470;2023-02-15T08:25:36;0.30;;;0.30;;
19927;SDS011;10126;50.876;4.470;2023-02-15T08:27:36;0.30;;;0.30;;
19927;SDS011;10126;50.876;4.470;2023-02-15T08:29:37;0.30;;;0.30;;
19927;SDS011;10126;50.876;4.470;2023-02-15T08:31:39;0.40;;;0.40;;
19927;SDS011;10126;50.876;4.470;2023-02-15T08:33:41;0.30;;;0.30;;
19927;SDS011;10126;50.876;4.470;2023-02-15T08:35:43;0.30;;;0.30;;
19927;SDS011;10126;50.876;4.470;2023-02-15T08:37:44;0.30;;;0.30;;
19927;SDS011;10126;50.876;4.470;2023-02-15T08:39:45;0.30;;;0.30;;
19927;SDS011;10126;50.876;4.470;2023-02-15T08:41:46;0.40;;;0.40;;
19927;SDS011;10126;50.876;4.470;2023-02-15T08:43:48;0.40;;;0.40;;
19927;SDS011;10126;50.876;4.470;2023-02-15T08:45:52;0.30;;;0.30;;
19927;SDS011;10126;50.876;4.470;2023-02-15T08:47:52;0.40;;;0.40;;
19927;SDS011;10126;50.876;4.470;2023-02-15T08:49:53;0.30;;;0.30;;
19927;SDS011;10126;50.876;4.470;2023-02-15T08:51:54;0.30;;;0.30;;
19927;SDS011;10126;50.876;4.470;2023-02-15T08:53:55;0.43;;;0.43;;
19927;SDS011;10126;50.876;4.470;2023-02-15T08:55:58;0.40;;;0.40;;
19927;SDS011;10126;50.876;4.470;2023-02-15T08:57:58;0.40;;;0.40;;
19927;SDS011;10126;50.876;4.470;2023-02-15T08:59:59;0.20;;;0.20;;
19927;SDS011;10126;50.876;4.470;2023-02-15T09:02:00;0.40;;;0.40;;
19927;SDS011;10126;50.876;4.470;2023-02-15T09:04:02;0.47;;;0.47;;
19927;SDS011;10126;50.876;4.470;2023-02-15T09:06:05;0.30;;;0.30;;
19927;SDS011;10126;50.876;4.470;2023-02-15T09:08:06;0.40;;;0.40;;
19927;SDS011;10126;50.876;4.470;2023-02-15T09:10:07;0.40;;;0.40;;
19927;SDS011;10126;50.876;4.470;2023-02-15T09:12:08;0.40;;;0.40;;
19927;SDS011;10126;50.876;4.470;2023-02-15T09:14:18;0.37;;;0.37;;
19927;SDS011;10126;50.876;4.470;2023-02-15T09:16:21;0.30;;;0.30;;
19927;SDS011;10126;50.876;4.470;2023-02-15T09:18:23;0.30;;;0.30;;
19927;SDS011;10126;50.876;4.470;2023-02-15T09:20:24;0.30;;;0.30;;
19927;SDS011;10126;50.876;4.470;2023-02-15T09:22:24;0.30;;;0.30;;
19927;SDS011;10126;50.876;4.470;2023-02-15T09:24:25;0.40;;;0.40;;
19927;SDS011;10126;50.876;4.470;2023-02-15T09:26:27;0.40;;;0.40;;
19927;SDS011;10126;50.876;4.470;2023-02-15T09:28:29;0.30;;;0.30;;
19927;SDS011;10126;50.876;4.470;2023-02-15T09:30:33;0.33;;;0.33;;
19927;SDS011;10126;50.876;4.470;2023-02-15T09:32:33;0.30;;;0.30;;
19927;SDS011;10126;50.876;4.470;2023-02-15T09:34:34;0.20;;;0.20;;
19927;SDS011;10126;50.876;4.470;2023-02-15T09:36:35;0.30;;;0.30;;
19927;SDS011;10126;50.876;4.470;2023-02-15T09:38:37;0.30;;;0.30;;
19927;SDS011;10126;50.876;4.470;2023-02-15T09:40:39;0.30;;;0.30;;
19927;SDS011;10126;50.876;4.470;2023-02-15T09:44:58;0.30;;;0.30;;
19927;SDS011;10126;50.876;4.470;2023-02-15T09:50:06;0.30;;;0.30;;
19927;SDS011;10126;50.876;4.470;2023-02-15T09:57:30;0.30;;;0.30;;
19927;SDS011;10126;50.876;4.470;2023-02-15T09:59:42;0.20;;;0.20;;
19927;SDS011;10126;50.876;4.470;2023-02-15T10:06:35;0.30;;;0.30;;
19927;SDS011;10126;50.876;4.470;2023-02-15T10:09:03;0.30;;;0.30;;
19927;SDS011;10126;50.876;4.470;2023-02-15T10:11:15;0.30;;;0.30;;
19927;SDS011;10126;50.876;4.470;2023-02-15T10:13:43;0.30;;;0.30;;
19927;SDS011;10126;50.876;4.470;2023-02-15T10:26:20;0.30;;;0.30;;
19927;SDS011;10126;50.876;4.470;2023-02-15T10:28:00;0.30;;;0.30;;
19927;SDS011;10126;50.876;4.470;2023-02-15T10:30:11;0.20;;;0.20;;
19927;SDS011;10126;50.876;4.470;2023-02-15T10:32:22;0.30;;;0.30;;
19927;SDS011;10126;50.876;4.470;2023-02-15T10:34:32;0.20;;;0.20;;
19927;SDS011;10126;50.876;4.470;2023-02-15T10:39:02;0.30;;;0.30;;
19927;SDS011;10126;50.876;4.470;2023-02-15T10:49:39;0.30;;;0.30;;
19927;SDS011;10126;50.876;4.470;2023-02-15T10:51:55;0.30;;;0.30;;
19927;SDS011;10126;50.876;4.470;2023-02-15T10:56:56;0.30;;;0.30;;
19927;SDS011;10126;50.876;4.470;2023-02-15T11:01:53;0.30;;;0.30;;
19927;SDS011;10126;50.876;4.470;2023-02-15T11:06:19;0.30;;;0.30;;
19927;SDS011;10126;50.876;4.470;2023-02-15T11:08:22;0.30;;;0.30;;
19927;SDS011;10126;50.876;4.470;2023-02-15T11:12:38;0.30;;;0.30;;
19927;SDS011;10126;50.876;4.470;2023-02-15T11:17:08;0.20;;;0.20;;
19927;SDS011;10126;50.876;4.470;2023-02-15T11:19:16;0.20;;;0.20;;
19927;SDS011;10126;50.876;4.470;2023-02-15T11:21:24;0.20;;;0.20;;
19927;SDS011;10126;50.876;4.470;2023-02-15T11:23:47;0.27;;;0.27;;
19927;SDS011;10126;50.876;4.470;2023-02-15T11:25:56;0.30;;;0.30;;
19927;SDS011;10126;50.876;4.470;2023-02-15T11:28:00;0.23;;;0.23;;
19927;SDS011;10126;50.876;4.470;2023-02-15T11:34:35;0.20;;;0.20;;
19927;SDS011;10126;50.876;4.470;2023-02-15T11:36:39;0.30;;;0.30;;
19927;SDS011;10126;50.876;4.470;2023-02-15T11:38:40;0.30;;;0.30;;
19927;SDS011;10126;50.876;4.470;2023-02-15T11:40:54;0.27;;;0.27;;
19927;SDS011;10126;50.876;4.470;2023-02-15T11:43:11;0.30;;;0.30;;
19927;SDS011;10126;50.876;4.470;2023-02-15T11:47:31;0.30;;;0.30;;
19927;SDS011;10126;50.876;4.470;2023-02-15T11:49:32;0.30;;;0.30;;
19927;SDS011;10126;50.876;4.470;2023-02-15T11:51:34;0.20;;;0.20;;
19927;SDS011;10126;50.876;4.470;2023-02-15T11:53:36;0.20;;;0.20;;
19927;SDS011;10126;50.876;4.470;2023-02-15T11:55:37;0.20;;;0.20;;
19927;SDS011;10126;50.876;4.470;2023-02-15T11:57:39;0.20;;;0.20;;
19927;SDS011;10126;50.876;4.470;2023-02-15T11:59:46;0.20;;;0.20;;
19927;SDS011;10126;50.876;4.470;2023-02-15T12:02:01;0.20;;;0.20;;
19927;SDS011;10126;50.876;4.470;2023-02-15T12:04:06;0.20;;;0.20;;
19927;SDS011;10126;50.876;4.470;2023-02-15T12:06:26;0.20;;;0.20;;
19927;SDS011;10126;50.876;4.470;2023-02-15T12:08:39;0.30;;;0.30;;
19927;SDS011;10126;50.876;4.470;2023-02-15T12:13:22;0.20;;;0.20;;
19927;SDS011;10126;50.876;4.470;2023-02-15T12:15:29;0.20;;;0.20;;
19927;SDS011;10126;50.876;4.470;2023-02-15T12:17:32;0.20;;;0.20;;
19927;SDS011;10126;50.876;4.470;2023-02-15T12:19:39;0.20;;;0.20;;
19927;SDS011;10126;50.876;4.470;2023-02-15T12:21:40;0.20;;;0.20;;
19927;SDS011;10126;50.876;4.470;2023-02-15T12:23:46;0.20;;;0.20;;
19927;SDS011;10126;50.876;4.470;2023-02-15T12:27:52;0.30;;;0.30;;
19927;SDS011;10126;50.876;4.470;2023-02-15T12:30:17;0.20;;;0.20;;
19927;SDS011;10126;50.876;4.470;2023-02-15T12:32:19;0.20;;;0.20;;
19927;SDS011;10126;50.876;4.470;2023-02-15T12:34:31;0.47;;;0.20;;
19927;SDS011;10126;50.876;4.470;2023-02-15T12:36:42;0.30;;;0.23;;
19927;SDS011;10126;50.876;4.470;2023-02-15T12:41:21;0.20;;;0.20;;
19927;SDS011;10126;50.876;4.470;2023-02-15T12:43:34;0.33;;;0.33;;
19927;SDS011;10126;50.876;4.470;2023-02-15T12:45:37;0.20;;;0.20;;
19927;SDS011;10126;50.876;4.470;2023-02-15T12:47:38;0.20;;;0.20;;
19927;SDS011;10126;50.876;4.470;2023-02-15T12:49:38;0.20;;;0.20;;
19927;SDS011;10126;50.876;4.470;2023-02-15T12:53:51;0.20;;;0.20;;
19927;SDS011;10126;50.876;4.470;2023-02-15T12:55:53;0.20;;;0.20;;
19927;SDS011;10126;50.876;4.470;2023-02-15T12:58:06;0.20;;;0.20;;
19927;SDS011;10126;50.876;4.470;2023-02-15T13:00:24;0.27;;;0.27;;
19927;SDS011;10126;50.876;4.470;2023-02-15T13:02:28;0.23;;;0.23;;
19927;SDS011;10126;50.876;4.470;2023-02-15T13:04:36;0.20;;;0.20;;
19927;SDS011;10126;50.876;4.470;2023-02-15T13:06:48;0.20;;;0.20;;
19927;SDS011;10126;50.876;4.470;2023-02-15T13:08:52;0.30;;;0.30;;
19927;SDS011;10126;50.876;4.470;2023-02-15T13:10:57;0.20;;;0.20;;
19927;SDS011;10126;50.876;4.470;2023-02-15T13:13:10;0.23;;;0.23;;
19927;SDS011;10126;50.876;4.470;2023-02-15T13:15:52;0.20;;;0.20;;
19927;SDS011;10126;50.876;4.470;2023-02-15T13:17:48;0.20;;;0.20;;
19927;SDS011;10126;50.876;4.470;2023-02-15T13:19:52;0.30;;;0.30;;
19927;SDS011;10126;50.876;4.470;2023-02-15T13:21:56;0.23;;;0.23;;
19927;SDS011;10126;50.876;4.470;2023-02-15T13:24:00;0.20;;;0.20;;
19927;SDS011;10126;50.876;4.470;2023-02-15T13:26:08;0.30;;;0.30;;
19927;SDS011;10126;50.876;4.470;2023-02-15T13:28:14;0.20;;;0.20;;
19927;SDS011;10126;50.876;4.470;2023-02-15T13:32:38;0.20;;;0.20;;
19927;SDS011;10126;50.876;4.470;2023-02-15T13:34:41;0.23;;;0.23;;
19927;SDS011;10126;50.876;4.470;2023-02-15T13:41:38;0.20;;;0.20;;
19927;SDS011;10126;50.876;4.470;2023-02-15T13:44:08;0.20;;;0.20;;
19927;SDS011;10126;50.876;4.470;2023-02-15T13:59:45;0.20;;;0.20;;
19927;SDS011;10126;50.876;4.470;2023-02-15T14:13:27;0.30;;;0.30;;
19927;SDS011;10126;50.876;4.470;2023-02-15T14:15:42;0.30;;;0.30;;
19927;SDS011;10126;50.876;4.470;2023-02-15T14:19:53;0.20;;;0.20;;
19927;SDS011;10126;50.876;4.470;2023-02-15T14:21:59;0.23;;;0.23;;
19927;SDS011;10126;50.876;4.470;2023-02-15T14:26:36;0.30;;;0.30;;
19927;SDS011;10126;50.876;4.470;2023-02-15T14:31:22;0.30;;;0.30;;
19927;SDS011;10126;50.876;4.470;2023-02-15T14:33:35;0.20;;;0.20;;
19927;SDS011;10126;50.876;4.470;2023-02-15T14:35:39;0.20;;;0.20;;
19927;SDS011;10126;50.876;4.470;2023-02-15T14:42:58;0.20;;;0.20;;
19927;SDS011;10126;50.876;4.470;2023-02-15T14:45:42;0.20;;;0.20;;
19927;SDS011;10126;50.876;4.470;2023-02-15T14:48:11;0.30;;;0.30;;
19927;SDS011;10126;50.876;4.470;2023-02-15T14:52:54;0.20;;;0.20;;
19927;SDS011;10126;50.876;4.470;2023-02-15T14:55:17;0.20;;;0.20;;